In Rescue
 
Open Full Screen Window  High Contrast Mode
Wind Gusting 00 knots
03
November 25, 2020 6:30 AM EST
Present Weather: Mist
Weather Information
Wind Direction
  150 °
Wind Speed
  03 kt (3 mph)
Wind Gust
  00 kt (0 mph)
Altimeter
29.89 in
Visibility
2 1/2 SM
Temperature
06° C
43° F
Dewpoint
04° C
39° F
Humidity
87%
1hr Rain Fall
00.00 in.
24hr Rain Fall
00.06 in.
Sky Condition
Overcast @ 600 ft
IFR

METAR KFPK 251130Z AUTO 15003KT 2 1/2SM BR OVC006 06/04 A2989 RMK AO2 T00560043

FAA Disclaimer: The data displayed is for advisory purposes only and is not to be used for flight planning or operations.